Time;durP1;ratioP1;P1;durP2;ratioP2;P2;SDS_P1;SDS_P2;PMS_P1;PMS_P2;Temp;Humidity;BMP_temperature;BMP_pressure;BME280_temperature;BME280_humidity;BME280_pressure;Samples;Min_cycle;Max_cycle;Signal;HPM_P1;HPM_P2
2023/07/05 00:00:42;;;;;;;10.33;5.80;;;17.10;99.90;;;;;;5100220;28;20911;-65
2023/07/05 00:03:10;;;;;;;6.77;5.80;;;17.10;1.00;;;;;;5099977;28;20807;-65
2023/07/05 00:05:37;;;;;;;9.33;6.17;;;17.00;1.00;;;;;;5100270;28;20460;-66
2023/07/05 00:08:07;;;;;;;7.40;5.70;;;17.00;1.00;;;;;;5100250;28;20460;-63
2023/07/05 00:10:34;;;;;;;8.47;5.67;;;17.00;1.00;;;;;;5099934;28;20467;-63
2023/07/05 00:13:01;;;;;;;7.60;6.00;;;17.00;1.00;;;;;;5100406;28;20456;-63
2023/07/05 00:15:29;;;;;;;7.80;6.10;;;17.00;29.40;;;;;;5100283;28;20565;-63
2023/07/05 00:17:57;;;;;;;6.60;6.00;;;16.90;99.90;;;;;;5099711;28;20881;-62
2023/07/05 00:20:24;;;;;;;6.37;5.43;;;16.90;99.90;;;;;;5100006;28;20463;-62
2023/07/05 00:22:53;;;;;;;7.97;6.50;;;16.90;99.90;;;;;;5099876;28;20937;-62
2023/07/05 00:25:21;;;;;;;7.33;5.77;;;16.90;99.90;;;;;;5100029;28;20457;-65
2023/07/05 00:27:49;;;;;;;10.07;6.47;;;16.90;99.90;;;;;;5100000;28;20467;-64
2023/07/05 00:30:16;;;;;;;7.43;5.70;;;16.90;99.90;;;;;;5099488;28;20460;-63
2023/07/05 00:32:43;;;;;;;8.20;5.90;;;16.80;99.90;;;;;;5099187;28;20466;-63
2023/07/05 00:35:11;;;;;;;10.17;5.80;;;16.70;1.00;;;;;;5099771;28;20885;-64
2023/07/05 00:37:38;;;;;;;8.10;5.03;;;16.70;1.00;;;;;;5100038;28;20892;-64
2023/07/05 00:40:06;;;;;;;6.67;5.03;;;16.70;31.30;;;;;;5099073;28;20488;-62
2023/07/05 00:42:34;;;;;;;7.00;5.30;;;16.70;90.60;;;;;;5099400;28;20779;-63
2023/07/05 00:45:50;;;;;;;7.47;5.60;;;16.70;99.90;;;;;;5099184;28;20460;-65
2023/07/05 00:48:20;;;;;;;6.23;4.90;;;16.70;61.10;;;;;;5098904;28;20529;-63
2023/07/05 00:50:50;;;;;;;5.60;4.57;;;16.60;99.90;;;;;;5099404;28;20574;-64
2023/07/05 00:53:19;;;;;;;7.10;5.07;;;16.70;99.90;;;;;;5099785;28;20747;-63
2023/07/05 00:55:49;;;;;;;6.33;5.20;;;16.60;99.90;;;;;;5099450;28;20480;-63
2023/07/05 00:58:18;;;;;;;6.83;5.20;;;16.60;99.90;;;;;;5098942;28;20463;-62
2023/07/05 01:00:46;;;;;;;8.67;5.57;;;16.70;1.00;;;;;;5099350;28;20870;-61
2023/07/05 01:03:20;;;;;;;7.50;6.00;;;16.60;1.00;;;;;;5099083;28;20495;-58
2023/07/05 01:05:49;;;;;;;6.63;5.50;;;16.70;1.00;;;;;;5097362;28;20474;-60
2023/07/05 01:08:16;;;;;;;6.03;4.70;;;16.70;1.00;;;;;;5098687;28;20457;-61
2023/07/05 01:10:50;;;;;;;7.17;5.37;;;16.60;1.00;;;;;;5099124;28;20442;-61
2023/07/05 01:13:24;;;;;;;5.83;5.00;;;16.60;19.00;;;;;;5098820;28;20460;-59
2023/07/05 01:16:00;;;;;;;6.47;4.97;;;16.70;98.50;;;;;;5098890;28;20464;-58
2023/07/05 01:18:34;;;;;;;11.87;5.73;;;16.70;99.90;;;;;;5098891;28;20554;-57
2023/07/05 01:21:09;;;;;;;5.50;5.00;;;16.70;99.90;;;;;;5098826;28;20913;-61
2023/07/05 01:24:24;;;;;;;6.37;5.40;;;16.60;99.90;;;;;;5098856;28;20754;-59
2023/07/05 01:27:24;;;;;;;6.00;4.83;;;16.60;99.90;;;;;;5023303;28;20486;-58
2023/07/05 01:30:13;;;;;;;7.13;5.10;;;16.50;99.90;;;;;;5036041;28;20463;-60
2023/07/05 01:32:47;;;;;;;6.40;4.70;;;16.50;99.90;;;;;;5093311;28;20452;-61
2023/07/05 01:35:19;;;;;;;6.00;5.23;;;16.50;99.90;;;;;;5098575;28;20470;-61
2023/07/05 01:37:47;;;;;;;7.60;5.20;;;16.50;99.90;;;;;;5098640;28;20464;-61
2023/07/05 01:40:31;;;;;;;5.37;4.40;;;16.50;99.90;;;;;;5097974;28;20495;-61
2023/07/05 01:43:01;;;;;;;7.30;5.07;;;16.50;99.90;;;;;;5097725;28;20491;-59
2023/07/05 01:45:36;;;;;;;6.83;5.00;;;16.40;99.90;;;;;;5098556;28;20891;-62
2023/07/05 01:48:11;;;;;;;6.03;5.00;;;16.40;99.90;;;;;;5097895;28;20467;-60
2023/07/05 01:50:43;;;;;;;5.53;4.50;;;16.40;99.90;;;;;;5098203;28;20741;-60
2023/07/05 01:53:18;;;;;;;6.03;4.93;;;16.40;99.90;;;;;;5098447;28;20456;-60
2023/07/05 01:55:52;;;;;;;8.40;5.37;;;16.40;99.90;;;;;;5098603;28;20934;-58
2023/07/05 01:58:22;;;;;;;5.23;4.70;;;16.50;99.90;;;;;;5098071;28;20496;-57
2023/07/05 02:00:52;;;;;;;6.90;5.03;;;16.50;99.90;;;;;;5097507;28;20563;-58
2023/07/05 02:03:24;;;;;;;6.03;5.37;;;16.40;99.90;;;;;;5098360;28;20492;-59
2023/07/05 02:05:52;;;;;;;5.50;4.90;;;16.40;99.90;;;;;;5098128;28;20467;-58
2023/07/05 02:08:24;;;;;;;5.57;4.53;;;16.50;99.90;;;;;;5097771;28;20793;-58
2023/07/05 02:10:51;;;;;;;5.20;4.63;;;16.40;99.90;;;;;;5098186;28;20911;-58
2023/07/05 02:13:18;;;;;;;5.70;4.87;;;16.40;99.90;;;;;;5097874;28;20456;-58
2023/07/05 02:15:48;;;;;;;6.73;5.70;;;16.50;99.90;;;;;;5097824;28;20460;-59
2023/07/05 02:18:16;;;;;;;5.90;4.67;;;16.50;99.90;;;;;;5097321;28;20465;-58
2023/07/05 02:20:44;;;;;;;7.07;4.97;;;16.50;99.90;;;;;;5097668;28;20464;-59
2023/07/05 02:23:11;;;;;;;5.63;4.30;;;16.50;99.90;;;;;;5097707;28;20786;-59
2023/07/05 02:25:38;;;;;;;5.20;4.30;;;16.50;99.90;;;;;;5097979;28;20531;-59
2023/07/05 02:28:07;;;;;;;5.00;4.47;;;16.50;99.90;;;;;;5097484;28;20488;-60
2023/07/05 02:30:36;;;;;;;5.03;4.30;;;16.50;99.90;;;;;;5097000;28;20761;-59
2023/07/05 02:33:03;;;;;;;6.03;4.40;;;16.50;99.90;;;;;;5096910;28;20457;-59
2023/07/05 02:35:34;;;;;;;5.83;4.40;;;16.50;99.90;;;;;;5097693;28;20881;-58
2023/07/05 02:38:03;;;;;;;8.20;4.50;;;16.50;99.90;;;;;;5097095;28;20551;-59
2023/07/05 02:40:30;;;;;;;5.60;4.40;;;16.60;99.90;;;;;;5096939;28;20488;-60
2023/07/05 02:42:59;;;;;;;5.57;4.80;;;16.60;99.90;;;;;;5097272;28;20465;-59
2023/07/05 02:45:26;;;;;;;6.57;4.60;;;16.50;99.90;;;;;;5097751;28;20461;-59
2023/07/05 02:47:53;;;;;;;5.37;4.40;;;16.50;99.90;;;;;;5097600;28;20971;-59
2023/07/05 02:50:20;;;;;;;6.13;4.67;;;16.50;99.90;;;;;;5097485;28;20460;-59
2023/07/05 02:52:48;;;;;;;8.70;4.00;;;16.50;99.90;;;;;;5097434;28;20460;-63
2023/07/05 02:55:16;;;;;;;8.10;4.70;;;16.50;99.90;;;;;;5097351;28;20480;-59
2023/07/05 02:57:43;;;;;;;5.50;4.90;;;16.40;99.90;;;;;;5097016;28;20460;-60
2023/07/05 03:00:12;;;;;;;6.50;5.00;;;16.40;99.90;;;;;;5095945;28;20463;-60
2023/07/05 03:02:39;;;;;;;5.10;4.60;;;16.50;99.90;;;;;;5095866;28;20445;-60
2023/07/05 03:05:10;;;;;;;6.50;5.03;;;16.50;99.90;;;;;;5096323;28;20500;-57
2023/07/05 03:07:38;;;;;;;7.40;4.60;;;16.50;99.90;;;;;;5096352;28;20891;-60
2023/07/05 03:10:07;;;;;;;6.20;4.30;;;16.40;99.90;;;;;;5096166;28;20460;-60
2023/07/05 03:12:35;;;;;;;5.20;4.70;;;16.40;99.90;;;;;;5095967;28;20460;-61
2023/07/05 03:15:03;;;;;;;5.90;4.90;;;16.40;99.90;;;;;;5096010;28;20467;-59
2023/07/05 03:17:30;;;;;;;5.00;3.93;;;16.50;99.90;;;;;;5095551;28;20465;-58
2023/07/05 03:19:59;;;;;;;6.90;4.10;;;16.40;99.90;;;;;;5095415;28;20479;-61
2023/07/05 03:22:26;;;;;;;3.73;3.13;;;16.40;99.90;;;;;;5095847;28;20488;-59
2023/07/05 03:24:54;;;;;;;3.70;3.40;;;16.40;99.90;;;;;;5095306;28;20484;-58
2023/07/05 03:27:21;;;;;;;5.10;3.77;;;16.30;99.90;;;;;;5095577;28;21085;-64
2023/07/05 03:29:52;;;;;;;4.50;4.10;;;16.50;99.90;;;;;;5097910;28;20465;-56
2023/07/05 03:32:19;;;;;;;4.63;3.63;;;16.50;99.90;;;;;;5101113;28;20866;-58
2023/07/05 03:34:47;;;;;;;5.50;4.00;;;16.50;99.90;;;;;;5100939;28;20460;-60
2023/07/05 03:37:14;;;;;;;4.67;4.10;;;16.40;99.90;;;;;;5100819;28;20460;-57
2023/07/05 03:39:41;;;;;;;5.13;4.03;;;16.40;99.90;;;;;;5100303;28;20602;-55
2023/07/05 03:42:09;;;;;;;5.80;4.30;;;16.40;99.90;;;;;;5100780;28;20459;-56
2023/07/05 03:44:36;;;;;;;4.90;4.50;;;16.40;99.90;;;;;;5100281;28;20586;-58
2023/07/05 03:47:05;;;;;;;6.27;4.23;;;16.40;99.90;;;;;;5100497;28;20460;-59
2023/07/05 03:49:32;;;;;;;5.77;4.60;;;16.30;99.90;;;;;;5100186;28;20763;-58
2023/07/05 03:51:59;;;;;;;6.60;4.00;;;16.30;99.90;;;;;;5100196;28;20483;-58
2023/07/05 03:54:28;;;;;;;7.00;4.87;;;16.30;99.90;;;;;;5100587;28;20452;-60
2023/07/05 03:56:55;;;;;;;5.00;4.27;;;16.20;99.90;;;;;;5100584;28;20465;-60
2023/07/05 03:59:22;;;;;;;4.17;3.67;;;16.10;99.90;;;;;;5100430;28;20467;-59
2023/07/05 04:01:49;;;;;;;3.83;3.10;;;16.10;99.90;;;;;;5100500;28;20464;-57
2023/07/05 04:04:18;;;;;;;4.17;3.23;;;15.70;99.90;;;;;;5100249;28;20492;-58
2023/07/05 04:06:45;;;;;;;3.87;2.90;;;15.50;99.90;;;;;;5099587;28;20460;-60
2023/07/05 04:09:12;;;;;;;3.37;2.93;;;15.40;1.00;;;;;;5100326;28;20465;-61
2023/07/05 04:11:39;;;;;;;4.00;2.87;;;15.20;29.50;;;;;;5100331;28;20464;-61
2023/07/05 04:14:06;;;;;;;5.07;3.13;;;15.10;1.00;;;;;;5099776;28;20794;-58
2023/07/05 04:16:33;;;;;;;3.47;3.03;;;14.80;99.90;;;;;;5100009;28;20478;-61
2023/07/05 04:19:01;;;;;;;4.27;3.23;;;14.70;1.00;;;;;;5100132;28;20877;-63
2023/07/05 04:21:29;;;;;;;4.70;3.03;;;14.50;1.00;;;;;;5100269;28;20434;-52
2023/07/05 04:23:56;;;;;;;4.90;3.20;;;14.40;1.00;;;;;;5099444;28;20583;-60
2023/07/05 04:26:25;;;;;;;4.60;2.83;;;14.30;1.00;;;;;;5099608;28;20559;-61
2023/07/05 04:28:53;;;;;;;4.73;3.23;;;14.10;1.00;;;;;;5100426;28;20936;-64
2023/07/05 04:31:23;;;;;;;4.23;3.30;;;14.00;1.00;;;;;;5098324;28;20453;-61
2023/07/05 04:33:51;;;;;;;5.77;3.40;;;13.90;55.90;;;;;;5080007;28;20530;-63
2023/07/05 04:36:18;;;;;;;4.30;2.87;;;13.90;89.00;;;;;;5079485;28;20457;-59
2023/07/05 04:38:46;;;;;;;6.00;3.90;;;13.80;99.90;;;;;;5079469;28;20981;-58
2023/07/05 04:41:13;;;;;;;5.70;4.00;;;13.70;99.90;;;;;;5079517;28;20453;-60
2023/07/05 04:43:40;;;;;;;4.60;3.30;;;13.70;99.90;;;;;;5079201;28;20592;-63
2023/07/05 04:46:08;;;;;;;5.20;4.00;;;13.70;99.90;;;;;;5078949;28;20465;-63
2023/07/05 04:48:35;;;;;;;3.83;3.20;;;13.60;99.90;;;;;;5079073;28;20462;-61
2023/07/05 04:51:02;;;;;;;6.87;4.30;;;13.60;99.90;;;;;;5079371;28;20463;-60
2023/07/05 04:53:30;;;;;;;3.90;3.27;;;13.60;1.00;;;;;;5079319;28;20741;-62
2023/07/05 04:55:59;;;;;;;5.30;3.50;;;13.50;1.00;;;;;;5078926;28;20461;-63
2023/07/05 04:58:27;;;;;;;4.77;3.50;;;13.60;1.00;;;;;;5079073;28;20432;-60
2023/07/05 05:01:02;;;;;;;4.90;3.80;;;13.60;1.00;;;;;;5078665;28;20465;-60
2023/07/05 05:03:30;;;;;;;4.50;3.50;;;13.60;1.00;;;;;;5079294;28;20472;-61
2023/07/05 05:05:57;;;;;;;4.67;3.37;;;13.60;1.00;;;;;;5078645;28;20543;-63
2023/07/05 05:08:25;;;;;;;3.83;3.33;;;13.70;9.30;;;;;;5093086;28;20552;-62
2023/07/05 05:10:53;;;;;;;7.40;4.30;;;13.80;1.00;;;;;;5098899;28;20469;-60
2023/07/05 05:13:22;;;;;;;4.40;3.37;;;13.90;99.90;;;;;;5099271;28;20460;-60
2023/07/05 05:15:49;;;;;;;4.30;3.33;;;13.90;1.00;;;;;;5099006;28;20850;-60
2023/07/05 05:18:17;;;;;;;4.30;3.30;;;14.00;1.00;;;;;;5098572;28;20464;-61
2023/07/05 05:20:45;;;;;;;5.23;4.23;;;14.00;1.00;;;;;;5098919;28;20500;-59
2023/07/05 05:23:12;;;;;;;5.50;4.00;;;14.10;1.00;;;;;;5098572;28;20463;-58
2023/07/05 05:25:42;;;;;;;4.57;3.97;;;14.10;1.00;;;;;;5097013;28;20492;-60
2023/07/05 05:28:09;;;;;;;4.87;3.30;;;14.00;99.90;;;;;;5097793;28;20562;-60
2023/07/05 05:30:38;;;;;;;5.67;3.87;;;13.90;99.90;;;;;;5098016;28;20513;-59
2023/07/05 05:33:06;;;;;;;7.90;4.53;;;13.90;1.00;;;;;;5097161;28;20465;-60
2023/07/05 05:35:35;;;;;;;5.87;4.53;;;13.90;1.00;;;;;;5097808;28;20460;-59
2023/07/05 05:38:02;;;;;;;4.53;3.40;;;14.00;1.00;;;;;;5097437;28;20507;-61
2023/07/05 05:40:29;;;;;;;6.60;4.13;;;14.20;1.00;;;;;;5098353;28;20527;-60
2023/07/05 05:42:57;;;;;;;4.60;4.00;;;14.30;1.00;;;;;;5098293;28;20464;-60
2023/07/05 05:45:25;;;;;;;5.13;4.63;;;14.30;99.90;;;;;;5098326;28;20491;-60
2023/07/05 05:47:53;;;;;;;6.20;4.37;;;14.50;99.90;;;;;;5098522;28;20484;-61
2023/07/05 05:50:22;;;;;;;4.37;3.80;;;14.60;99.90;;;;;;5098256;28;20518;-63
2023/07/05 05:52:50;;;;;;;5.77;4.47;;;14.50;92.70;;;;;;5097852;28;20460;-61
2023/07/05 05:55:17;;;;;;;7.37;4.37;;;14.50;99.90;;;;;;5098209;28;20509;-62
2023/07/05 05:57:44;;;;;;;6.00;4.00;;;14.30;99.90;;;;;;5098170;28;20464;-61
2023/07/05 06:00:13;;;;;;;8.90;4.47;;;14.40;61.50;;;;;;5097860;28;20764;-62
2023/07/05 06:02:40;;;;;;;5.87;4.70;;;14.40;91.80;;;;;;5097459;28;20461;-61
2023/07/05 06:05:11;;;;;;;6.27;4.40;;;14.40;31.50;;;;;;5098004;28;20491;-63
2023/07/05 06:07:38;;;;;;;7.30;4.77;;;14.30;1.00;;;;;;5098423;28;20482;-63
2023/07/05 06:10:06;;;;;;;6.33;4.50;;;14.40;1.00;;;;;;5097917;28;20460;-63
2023/07/05 06:12:36;;;;;;;5.50;4.67;;;14.80;1.00;;;;;;5097407;28;20511;-62
2023/07/05 06:15:03;;;;;;;6.23;4.50;;;15.20;1.00;;;;;;5096935;28;20457;-64
2023/07/05 06:17:30;;;;;;;6.57;4.57;;;15.20;1.00;;;;;;5097306;28;20459;-65
2023/07/05 06:19:57;;;;;;;5.67;5.03;;;14.90;1.00;;;;;;5096550;28;20456;-64
2023/07/05 06:22:26;;;;;;;4.60;4.07;;;14.80;1.00;;;;;;5097866;28;20456;-65
2023/07/05 06:24:53;;;;;;;8.57;4.40;;;14.50;1.00;;;;;;5096909;28;20481;-66
2023/07/05 06:27:20;;;;;;;10.30;5.50;;;14.50;1.00;;;;;;5093966;28;20913;-65
2023/07/05 06:29:47;;;;;;;5.27;4.67;;;14.40;1.00;;;;;;5097341;28;20449;-69
2023/07/05 06:32:14;;;;;;;6.50;4.77;;;14.30;1.00;;;;;;5096773;28;20457;-67
2023/07/05 06:34:42;;;;;;;5.20;4.07;;;14.20;1.00;;;;;;5097007;28;20448;-68
2023/07/05 06:37:09;;;;;;;6.00;5.00;;;14.20;1.00;;;;;;5098973;28;20487;-65
2023/07/05 06:39:39;;;;;;;5.27;4.40;;;14.20;1.00;;;;;;5097844;28;20480;-67
2023/07/05 06:42:06;;;;;;;6.63;4.70;;;14.20;1.00;;;;;;5098059;28;20470;-66
2023/07/05 06:44:33;;;;;;;6.00;4.70;;;14.10;1.00;;;;;;5097611;28;20495;-68
2023/07/05 06:47:00;;;;;;;6.03;4.10;;;14.00;1.00;;;;;;5097385;28;20466;-66
2023/07/05 06:49:28;;;;;;;8.80;4.30;;;14.10;1.00;;;;;;5098195;28;20782;-69
2023/07/05 06:51:55;;;;;;;6.13;4.10;;;14.20;99.90;;;;;;5099063;28;20885;-65
2023/07/05 06:54:22;;;;;;;6.40;4.23;;;14.40;99.90;;;;;;5098020;28;20752;-65
2023/07/05 06:56:51;;;;;;;4.80;3.60;;;14.70;99.90;;;;;;5097570;28;20872;-63
2023/07/05 06:59:18;;;;;;;8.10;4.37;;;14.90;99.90;;;;;;5098512;28;20456;-64
2023/07/05 07:01:45;;;;;;;6.93;4.10;;;15.10;99.90;;;;;;5097988;28;20434;-62
2023/07/05 07:04:12;;;;;;;6.77;3.70;;;15.40;99.90;;;;;;5099562;28;20500;-63
2023/07/05 07:06:39;;;;;;;4.90;3.30;;;15.90;99.90;;;;;;5100790;28;20914;-62
2023/07/05 07:09:07;;;;;;;5.67;3.80;;;16.20;81.70;;;;;;5101120;28;20464;-62
2023/07/05 07:11:34;;;;;;;5.20;3.30;;;16.60;7.90;;;;;;5101426;28;20464;-63
2023/07/05 07:14:03;;;;;;;5.40;4.23;;;16.80;1.00;;;;;;5101057;28;20470;-62
2023/07/05 07:16:30;;;;;;;7.10;3.80;;;17.10;1.00;;;;;;5101105;28;20564;-62
2023/07/05 07:18:59;;;;;;;4.60;3.77;;;17.10;1.00;;;;;;5101038;28;20766;-71
2023/07/05 07:21:26;;;;;;;5.33;4.00;;;16.80;1.00;;;;;;5099758;28;20470;-62
2023/07/05 07:23:53;;;;;;;4.47;3.83;;;16.60;1.00;;;;;;5099703;28;20460;-64
2023/07/05 07:26:23;;;;;;;4.97;3.60;;;16.50;1.00;;;;;;5100604;28;20542;-62
2023/07/05 07:28:52;;;;;;;4.10;3.63;;;16.30;1.00;;;;;;5101089;28;20468;-62
2023/07/05 07:31:22;;;;;;;4.63;3.70;;;15.90;1.00;;;;;;5100129;28;20789;-63
2023/07/05 07:33:50;;;;;;;3.80;3.40;;;15.60;1.00;;;;;;5100521;28;20805;-61
2023/07/05 07:36:19;;;;;;;5.80;4.13;;;15.40;1.00;;;;;;5100939;28;20456;-67
2023/07/05 07:38:47;;;;;;;4.23;3.00;;;15.20;1.00;;;;;;5100690;28;20506;-64
2023/07/05 07:41:16;;;;;;;6.10;3.57;;;15.10;1.00;;;;;;5100586;28;20463;-63
2023/07/05 07:43:44;;;;;;;5.90;3.67;;;15.00;40.70;;;;;;5101249;28;20482;-62
2023/07/05 07:46:13;;;;;;;3.97;3.50;;;15.10;99.90;;;;;;5099969;28;20503;-63
2023/07/05 07:48:44;;;;;;;4.50;3.40;;;15.20;99.90;;;;;;5100260;28;20885;-64
2023/07/05 07:51:11;;;;;;;3.77;3.40;;;15.10;99.90;;;;;;5101221;28;20467;-65
2023/07/05 07:53:38;;;;;;;4.13;2.90;;;15.00;99.90;;;;;;5100876;28;20460;-64
2023/07/05 07:56:12;;;;;;;5.17;3.70;;;14.90;99.90;;;;;;5100657;28;20431;-64
2023/07/05 07:58:40;;;;;;;3.50;3.20;;;14.80;98.00;;;;;;5100760;28;20787;-64
2023/07/05 08:01:14;;;;;;;5.87;3.30;;;14.80;99.90;;;;;;5100550;28;20461;-62
2023/07/05 08:03:42;;;;;;;5.07;3.03;;;14.70;99.90;;;;;;5100629;28;20464;-63
2023/07/05 08:06:10;;;;;;;8.27;3.00;;;14.60;1.00;;;;;;5100318;28;20492;-63
2023/07/05 08:08:39;;;;;;;4.00;2.87;;;14.50;1.00;;;;;;5099995;28;20831;-62
2023/07/05 08:11:08;;;;;;;10.47;3.43;;;14.40;1.00;;;;;;5100318;28;20474;-61
2023/07/05 08:13:37;;;;;;;4.43;3.30;;;14.20;1.00;;;;;;5100583;28;20483;-64
2023/07/05 08:16:04;;;;;;;5.47;3.03;;;14.10;97.80;;;;;;5099107;28;20517;-63
2023/07/05 08:18:31;;;;;;;3.80;2.60;;;14.10;99.90;;;;;;5100072;28;20460;-62
2023/07/05 08:21:01;;;;;;;4.40;3.27;;;14.10;58.40;;;;;;5099710;28;20468;-62
2023/07/05 08:23:28;;;;;;;9.43;3.40;;;14.10;1.00;;;;;;5100396;28;20840;-63
2023/07/05 08:25:55;;;;;;;4.50;2.70;;;14.30;1.00;;;;;;5099546;28;20491;-66
2023/07/05 08:28:23;;;;;;;4.87;2.80;;;14.60;1.00;;;;;;5099653;28;20453;-64
2023/07/05 08:30:54;;;;;;;6.50;3.37;;;14.70;1.00;;;;;;5099949;28;20987;-65
2023/07/05 08:33:22;;;;;;;4.73;2.83;;;14.80;1.00;;;;;;5099841;28;20452;-63
2023/07/05 08:35:50;;;;;;;8.67;3.60;;;14.70;1.00;;;;;;5099365;28;20760;-67
2023/07/05 08:38:18;;;;;;;4.30;2.93;;;14.50;1.00;;;;;;5098607;28;20456;-61
2023/07/05 08:40:53;;;;;;;3.27;2.50;;;14.50;1.00;;;;;;5098638;28;20488;-65
2023/07/05 08:43:30;;;;;;;4.63;2.73;;;14.70;1.00;;;;;;5100004;28;20463;-63
2023/07/05 08:46:03;;;;;;;4.10;2.47;;;15.20;99.90;;;;;;5099520;28;20514;-66
2023/07/05 08:48:33;;;;;;;4.20;2.90;;;15.90;99.90;;;;;;5100020;28;20464;-62
2023/07/05 08:51:01;;;;;;;3.47;3.17;;;16.10;28.10;;;;;;5100078;28;20461;-60
2023/07/05 08:53:30;;;;;;;4.70;2.70;;;16.00;1.00;;;;;;5100466;28;20881;-69
2023/07/05 08:56:03;;;;;;;7.40;3.03;;;16.00;1.00;;;;;;5099598;28;20453;-69
2023/07/05 08:58:44;;;;;;;4.37;2.60;;;16.00;1.00;;;;;;5099737;28;20503;-66
2023/07/05 09:01:18;;;;;;;4.93;3.37;;;16.20;1.00;;;;;;5099433;28;20453;-64
2023/07/05 09:03:45;;;;;;;4.83;2.90;;;16.60;1.00;;;;;;5099626;28;20460;-65
2023/07/05 09:06:24;;;;;;;3.53;2.57;;;16.70;1.00;;;;;;5097290;28;20954;-63
2023/07/05 09:09:13;;;;;;;4.00;2.27;;;17.00;1.00;;;;;;5091725;28;20470;-66
2023/07/05 09:11:56;;;;;;;3.90;3.10;;;17.20;1.00;;;;;;5099566;28;20837;-66
2023/07/05 09:14:40;;;;;;;6.40;3.20;;;17.00;99.90;;;;;;5099736;28;20480;-65
2023/07/05 09:17:15;;;;;;;5.20;2.80;;;16.70;99.90;;;;;;5098301;28;20453;-67
2023/07/05 09:19:51;;;;;;;4.73;3.03;;;16.30;99.90;;;;;;5095384;28;20452;-65
2023/07/05 09:22:24;;;;;;;6.80;2.67;;;16.10;99.90;;;;;;5098709;28;20877;-66
2023/07/05 09:24:54;;;;;;;5.25;2.80;;;15.90;99.90;;;;;;5096026;28;20471;-66
2023/07/05 09:27:26;;;;;;;5.87;2.73;;;15.90;99.90;;;;;;5097130;28;20494;-64
2023/07/05 09:30:00;;;;;;;4.20;2.90;;;15.80;99.90;;;;;;5097002;28;20475;-66
2023/07/05 09:32:31;;;;;;;5.83;3.20;;;15.80;99.90;;;;;;5099599;28;20465;-66
2023/07/05 09:35:01;;;;;;;7.43;2.80;;;15.90;1.00;;;;;;5099712;28;20941;-67
2023/07/05 09:37:32;;;;;;;7.20;3.20;;;15.80;99.90;;;;;;5100038;28;20881;-62
2023/07/05 09:40:15;;;;;;;8.03;3.40;;;15.80;99.90;;;;;;5097451;28;20484;-66
2023/07/05 09:42:47;;;;;;;6.97;2.60;;;15.90;99.90;;;;;;5096901;28;20466;-68
2023/07/05 09:45:15;;;;;;;5.60;2.70;;;16.10;99.90;;;;;;5096787;28;20485;-70
2023/07/05 09:47:44;;;;;;;5.17;2.97;;;16.60;99.90;;;;;;5095801;28;20470;-67
2023/07/05 09:50:16;;;;;;;4.67;2.80;;;17.00;99.90;;;;;;5095215;28;20467;-65
2023/07/05 09:52:45;;;;;;;4.50;2.97;;;17.40;99.90;;;;;;5096317;28;20784;-69
2023/07/05 09:55:16;;;;;;;4.30;2.43;;;17.40;99.90;;;;;;5096219;28;20468;-69
2023/07/05 09:57:43;;;;;;;6.73;2.97;;;17.70;99.90;;;;;;5099082;28;20877;-67
2023/07/05 10:00:34;;;;;;;7.83;2.97;;;17.70;99.90;;;;;;5099129;28;20461;-68
2023/07/05 10:03:07;;;;;;;7.10;3.00;;;17.70;99.90;;;;;;5093702;28;20502;-69
2023/07/05 10:05:34;;;;;;;3.50;2.40;;;17.60;99.90;;;;;;5098796;28;20496;-73
2023/07/05 10:08:04;;;;;;;7.17;2.87;;;17.70;99.90;;;;;;5098868;28;20948;-65
2023/07/05 10:10:37;;;;;;;6.33;2.40;;;17.70;99.90;;;;;;5099354;28;20464;-69
2023/07/05 10:13:12;;;;;;;5.60;3.00;;;17.70;99.90;;;;;;5098896;28;20468;-67
2023/07/05 10:15:43;;;;;;;7.30;2.77;;;17.90;99.90;;;;;;5098896;28;20491;-71
2023/07/05 10:18:28;;;;;;;6.20;2.93;;;18.30;99.90;;;;;;5099319;28;20782;-69
2023/07/05 10:20:57;;;;;;;4.17;2.50;;;18.50;99.90;;;;;;5098049;28;20475;-67
2023/07/05 10:23:26;;;;;;;4.70;2.40;;;18.40;99.90;;;;;;5097804;28;20467;-71
2023/07/05 10:26:00;;;;;;;4.63;3.00;;;18.80;99.90;;;;;;5097410;28;20496;-66
2023/07/05 10:28:29;;;;;;;7.23;2.70;;;19.30;99.90;;;;;;5097678;28;20461;-65
2023/07/05 10:30:59;;;;;;;5.33;2.77;;;19.70;4.60;;;;;;5097727;28;20460;-70
2023/07/05 10:33:28;;;;;;;7.57;3.07;;;20.40;1.00;;;;;;5098029;28;20460;-68
2023/07/05 10:36:02;;;;;;;8.93;3.40;;;20.10;1.00;;;;;;5098076;28;20461;-67
2023/07/05 10:38:31;;;;;;;7.67;3.80;;;19.40;1.00;;;;;;5097589;28;20507;-66
2023/07/05 10:41:02;;;;;;;8.20;2.80;;;18.90;1.00;;;;;;5097882;28;20464;-70
2023/07/05 10:43:32;;;;;;;4.70;2.90;;;18.40;1.00;;;;;;5098328;28;20897;-68
2023/07/05 10:46:02;;;;;;;4.13;2.80;;;18.20;1.00;;;;;;5097439;28;20488;-67
2023/07/05 10:48:38;;;;;;;5.00;2.90;;;18.60;1.00;;;;;;5097944;28;20464;-70
2023/07/05 10:51:06;;;;;;;6.83;2.50;;;18.90;1.00;;;;;;5097149;28;20464;-65
2023/07/05 10:53:33;;;;;;;4.13;2.40;;;19.30;1.00;;;;;;5098412;28;20905;-69
2023/07/05 10:56:10;;;;;;;7.03;3.13;;;19.30;1.00;;;;;;5097960;28;20479;-68
2023/07/05 10:58:44;;;;;;;8.80;3.90;;;19.50;99.90;;;;;;5097437;28;20460;-65
2023/07/05 11:01:18;;;;;;;11.47;3.13;;;18.70;99.90;;;;;;5097227;28;20903;-65
2023/07/05 11:03:51;;;;;;;3.80;2.70;;;19.20;1.00;;;;;;5096651;28;20468;-68
2023/07/05 11:06:19;;;;;;;4.50;2.80;;;19.30;1.00;;;;;;5097117;28;20553;-70
2023/07/05 11:08:47;;;;;;;6.90;3.60;;;19.00;99.90;;;;;;5095980;28;20457;-70
2023/07/05 11:11:20;;;;;;;4.20;3.00;;;18.80;99.90;;;;;;5095356;28;20456;-71
2023/07/05 11:13:49;;;;;;;8.30;2.70;;;19.20;99.90;;;;;;5096172;28;20858;-65
2023/07/05 11:16:19;;;;;;;6.63;2.80;;;18.80;99.90;;;;;;5096369;28;20479;-69
2023/07/05 11:18:47;;;;;;;5.33;2.77;;;18.30;99.90;;;;;;5097368;28;20559;-68
2023/07/05 11:21:37;;;;;;;5.67;3.50;;;18.00;99.90;;;;;;5096716;28;20881;-65
2023/07/05 11:24:06;;;;;;;6.37;2.70;;;18.40;99.90;;;;;;5095589;28;20461;-70
2023/07/05 11:26:44;;;;;;;4.20;2.70;;;19.40;99.90;;;;;;5095605;28;20675;-65
2023/07/05 11:29:51;;;;;;;6.73;3.20;;;19.60;99.90;;;;;;5095768;28;20463;-65
2023/07/05 11:32:18;;;;;;;6.80;2.80;;;19.40;99.90;;;;;;5085148;28;20507;-67
2023/07/05 11:34:49;;;;;;;5.30;3.07;;;18.90;99.90;;;;;;5095666;28;20460;-68
2023/07/05 11:37:49;;;;;;;6.30;3.07;;;19.10;99.90;;;;;;5096179;28;20939;-64
2023/07/05 11:41:05;;;;;;;4.30;2.80;;;19.60;99.90;;;;;;5097772;28;20484;-71
2023/07/05 11:43:42;;;;;;;6.50;2.73;;;20.70;99.90;;;;;;5097448;28;20909;-66
2023/07/05 11:46:38;;;;;;;11.90;3.50;;;20.80;99.90;;;;;;5096362;28;20480;-67
2023/07/05 11:49:26;;;;;;;8.80;2.87;;;20.40;99.90;;;;;;5075367;28;20465;-70
2023/07/05 11:52:02;;;;;;;3.53;3.00;;;19.80;99.90;;;;;;5084325;28;20548;-67
2023/07/05 11:54:36;;;;;;;5.17;2.77;;;19.70;99.90;;;;;;5100683;28;20521;-61
2023/07/05 11:57:09;;;;;;;4.87;3.00;;;20.30;99.90;;;;;;5098759;28;20789;-66
2023/07/05 11:59:43;;;;;;;6.90;2.80;;;20.00;99.90;;;;;;5098378;28;20592;-61
2023/07/05 12:02:32;;;;;;;5.07;2.60;;;20.30;99.90;;;;;;5098800;28;20873;-70
2023/07/05 12:05:03;;;;;;;4.47;2.60;;;21.10;99.90;;;;;;5094886;28;20562;-70
2023/07/05 12:07:32;;;;;;;8.23;3.40;;;20.90;99.90;;;;;;5098048;28;20557;-67
2023/07/05 12:10:00;;;;;;;6.07;2.87;;;21.10;99.90;;;;;;5099333;28;20470;-69
2023/07/05 12:12:28;;;;;;;3.90;2.57;;;21.20;99.90;;;;;;5099843;28;20562;-67
2023/07/05 12:14:57;;;;;;;5.17;2.70;;;20.80;99.90;;;;;;5099000;28;20744;-61
2023/07/05 12:17:26;;;;;;;6.93;2.70;;;20.20;99.90;;;;;;5099399;28;20456;-67
2023/07/05 12:19:53;;;;;;;8.23;3.20;;;20.00;70.50;;;;;;5098849;28;20811;-70
2023/07/05 12:22:25;;;;;;;6.10;3.00;;;20.70;99.90;;;;;;5098744;28;20460;-67
2023/07/05 12:24:56;;;;;;;6.17;2.80;;;20.90;99.90;;;;;;5098432;28;20538;-62
2023/07/05 12:27:27;;;;;;;8.63;2.60;;;21.10;99.90;;;;;;5097372;28;20494;-69
2023/07/05 12:29:58;;;;;;;10.00;3.80;;;20.40;99.90;;;;;;5098664;28;20439;-67
2023/07/05 12:32:27;;;;;;;11.20;3.60;;;20.10;79.70;;;;;;5098107;28;20439;-68
2023/07/05 12:35:22;;;;;;;8.23;3.57;;;19.90;82.90;;;;;;5100051;28;20457;-70
2023/07/05 12:37:51;;;;;;;5.23;2.70;;;19.40;35.90;;;;;;5053286;28;20951;-67
2023/07/05 12:40:27;;;;;;;6.13;3.63;;;19.10;67.10;;;;;;5098665;28;20816;-68
2023/07/05 12:42:56;;;;;;;4.73;2.63;;;18.80;50.90;;;;;;5099600;28;20492;-63
2023/07/05 12:45:28;;;;;;;4.80;2.90;;;18.60;65.00;;;;;;5099588;28;20460;-68
2023/07/05 12:47:56;;;;;;;13.43;3.73;;;18.60;91.00;;;;;;5098021;28;20507;-64
2023/07/05 12:50:25;;;;;;;6.40;3.10;;;18.70;99.90;;;;;;5097827;28;20749;-65
2023/07/05 12:53:01;;;;;;;7.70;3.20;;;19.00;99.90;;;;;;5098886;28;20471;-61
2023/07/05 12:55:31;;;;;;;3.50;3.03;;;19.30;99.90;;;;;;5099107;28;20814;-73
2023/07/05 12:57:59;;;;;;;8.03;4.20;;;19.70;99.90;;;;;;5098541;28;20464;-65
2023/07/05 13:00:28;;;;;;;7.40;3.80;;;20.20;99.90;;;;;;5099248;28;20733;-66
2023/07/05 13:02:59;;;;;;;5.27;3.47;;;20.20;99.90;;;;;;5098282;28;20460;-70
2023/07/05 13:05:26;;;;;;;7.83;3.17;;;20.70;99.90;;;;;;5098405;28;20506;-70
2023/07/05 13:07:55;;;;;;;6.80;3.33;;;21.30;99.90;;;;;;5099828;28;20769;-66